createdAt,value
2023-03-03T00:01:30.673Z,17.67
2023-03-03T00:04:01.084Z,18.63
2023-03-03T00:06:30.593Z,13.83
2023-03-03T00:08:59.168Z,14.63
2023-03-03T00:11:27.341Z,16.33
2023-03-03T00:13:58.134Z,15.23
2023-03-03T00:16:29.235Z,18.40
2023-03-03T00:18:58.259Z,17.17
2023-03-03T00:21:30.702Z,17.60
2023-03-03T00:24:13.524Z,16.97
2023-03-03T00:26:43.847Z,14.00
2023-03-03T00:29:35.943Z,14.47
2023-03-03T00:32:25.540Z,20.23
2023-03-03T00:34:55.012Z,14.10
2023-03-03T00:37:30.204Z,17.33
2023-03-03T00:40:23.916Z,15.17
2023-03-03T00:42:54.431Z,15.60
2023-03-03T00:45:29.227Z,15.57
2023-03-03T00:47:58.001Z,14.87
2023-03-03T00:50:32.890Z,14.47
2023-03-03T00:53:07.953Z,14.03
2023-03-03T00:55:36.633Z,17.33
2023-03-03T00:58:05.733Z,27.97
2023-03-03T01:00:39.697Z,22.23
2023-03-03T01:03:14.088Z,24.13
2023-03-03T01:05:42.713Z,22.80
2023-03-03T01:08:12.433Z,13.47
2023-03-03T01:10:44.019Z,18.33
2023-03-03T01:13:12.831Z,21.77
2023-03-03T01:15:42.084Z,16.50
2023-03-03T01:18:11.609Z,20.90
2023-03-03T01:20:40.309Z,16.10
2023-03-03T01:23:08.850Z,14.33
2023-03-03T01:25:38.610Z,14.33
2023-03-03T01:28:07.211Z,14.87
2023-03-03T01:30:35.749Z,14.83
2023-03-03T01:33:03.843Z,15.17
2023-03-03T01:35:32.093Z,15.17
2023-03-03T01:38:00.486Z,15.43
2023-03-03T01:40:32.296Z,12.60
2023-03-03T01:43:02.231Z,13.07
2023-03-03T01:45:32.684Z,11.57
2023-03-03T01:48:04.485Z,13.93
2023-03-03T01:50:41.111Z,14.27
2023-03-03T01:53:14.874Z,19.53
2023-03-03T01:55:43.913Z,12.93
2023-03-03T01:58:18.056Z,13.97
2023-03-03T02:00:50.741Z,13.77
2023-03-03T02:03:21.847Z,13.53
2023-03-03T02:05:50.961Z,14.93
2023-03-03T02:08:23.783Z,13.17
2023-03-03T02:10:52.858Z,13.77
2023-03-03T02:13:22.388Z,12.50
2023-03-03T02:15:50.707Z,19.30
2023-03-03T02:18:22.184Z,14.77
2023-03-03T02:20:58.881Z,14.17
2023-03-03T02:23:35.603Z,18.70
2023-03-03T02:26:08.469Z,14.03
2023-03-03T02:28:39.146Z,15.70
2023-03-03T02:31:13.465Z,17.87
2023-03-03T02:33:43.480Z,19.83
2023-03-03T02:36:14.851Z,19.87
2023-03-03T02:38:49.609Z,20.00
2023-03-03T02:41:30.300Z,19.07
2023-03-03T02:44:02.416Z,18.60
2023-03-03T02:46:35.439Z,16.83
2023-03-03T02:49:04.451Z,18.00
2023-03-03T02:51:32.997Z,13.90
2023-03-03T02:54:01.213Z,17.63
2023-03-03T02:56:32.814Z,17.80
2023-03-03T02:59:01.462Z,14.23
2023-03-03T03:01:37.112Z,20.97
2023-03-03T03:04:10.014Z,16.73
2023-03-03T03:06:40.219Z,15.33
2023-03-03T03:09:10.447Z,14.63
2023-03-03T03:11:40.201Z,16.70
2023-03-03T03:14:11.598Z,17.97
2023-03-03T03:16:41.240Z,16.33
2023-03-03T03:19:09.973Z,21.77
2023-03-03T03:21:39.290Z,18.70
2023-03-03T03:24:08.991Z,17.10
2023-03-03T03:26:40.805Z,14.77
2023-03-03T03:29:09.213Z,18.30
2023-03-03T03:31:38.004Z,19.40
2023-03-03T03:34:06.423Z,15.90
2023-03-03T03:36:35.098Z,18.53
2023-03-03T03:39:06.706Z,17.10
2023-03-03T03:41:37.464Z,16.57
2023-03-03T03:44:07.313Z,18.73
2023-03-03T03:46:35.499Z,15.90
2023-03-03T03:49:03.674Z,19.90
2023-03-03T03:51:31.852Z,14.97
2023-03-03T03:54:00.653Z,13.43
2023-03-03T03:56:28.879Z,17.50
2023-03-03T03:59:00.730Z,18.57
2023-03-03T04:01:30.509Z,20.67
2023-03-03T04:03:59.329Z,14.20
2023-03-03T04:06:27.530Z,18.40
2023-03-03T04:08:56.580Z,22.07
2023-03-03T04:11:25.463Z,19.23
2023-03-03T04:13:53.619Z,17.07
2023-03-03T04:16:22.435Z,18.93
2023-03-03T04:18:52.002Z,16.93
2023-03-03T04:21:21.689Z,17.30
2023-03-03T04:23:51.296Z,18.47
2023-03-03T04:26:19.441Z,18.03
2023-03-03T04:28:48.563Z,16.50
2023-03-03T04:31:17.247Z,16.63
2023-03-03T04:33:45.469Z,20.10
2023-03-03T04:36:15.016Z,19.83
2023-03-03T04:38:43.193Z,18.60
2023-03-03T04:41:11.295Z,17.13
2023-03-03T04:43:40.600Z,17.47
2023-03-03T04:46:09.899Z,19.70
2023-03-03T04:48:39.606Z,18.33
2023-03-03T04:51:07.790Z,22.23
2023-03-03T04:53:39.197Z,17.57
2023-03-03T04:56:09.634Z,18.13
2023-03-03T04:58:38.180Z,18.13
2023-03-03T05:01:06.686Z,17.23
2023-03-03T05:03:35.915Z,22.33
2023-03-03T05:06:04.049Z,19.50
2023-03-03T05:08:32.221Z,22.57
2023-03-03T05:11:02.429Z,25.37
2023-03-03T05:13:31.847Z,21.13
2023-03-03T05:16:00.012Z,22.33
2023-03-03T05:18:28.886Z,20.23
2023-03-03T05:20:57.000Z,15.80
2023-03-03T05:23:25.232Z,18.43
2023-03-03T05:25:53.422Z,19.30
2023-03-03T05:28:22.867Z,18.10
2023-03-03T05:30:51.338Z,24.90
2023-03-03T05:33:19.490Z,21.60
2023-03-03T05:35:47.912Z,17.77
2023-03-03T05:38:16.048Z,25.33
2023-03-03T05:40:44.329Z,19.43
2023-03-03T05:43:12.408Z,17.67
2023-03-03T05:45:41.939Z,16.03
2023-03-03T05:48:11.774Z,19.63
2023-03-03T05:50:40.630Z,20.03
2023-03-03T05:53:08.875Z,18.83
2023-03-03T05:55:37.068Z,24.13
2023-03-03T05:58:05.234Z,20.53
2023-03-03T06:00:33.422Z,22.50
2023-03-03T06:03:03.065Z,21.97
2023-03-03T06:05:31.278Z,20.37
2023-03-03T06:08:00.005Z,20.00
2023-03-03T06:10:28.431Z,22.43
2023-03-03T06:12:59.746Z,26.60
2023-03-03T06:15:28.128Z,21.87
2023-03-03T06:17:56.312Z,23.07
2023-03-03T06:20:25.852Z,21.60
2023-03-03T06:22:54.173Z,21.93
2023-03-03T06:25:22.364Z,24.20
2023-03-03T06:27:50.437Z,20.97
2023-03-03T06:30:19.060Z,20.77
2023-03-03T06:32:47.367Z,25.80
2023-03-03T06:35:15.485Z,21.70
2023-03-03T06:37:44.947Z,23.70
2023-03-03T06:40:15.166Z,24.23
2023-03-03T06:42:43.230Z,25.90
2023-03-03T06:45:12.036Z,23.07
2023-03-03T06:47:40.085Z,25.20
2023-03-03T06:50:09.062Z,22.13
2023-03-03T06:52:37.196Z,23.73
2023-03-03T06:55:14.415Z,21.87
2023-03-03T06:57:42.620Z,24.90
2023-03-03T07:00:18.553Z,23.63
2023-03-03T07:02:46.971Z,24.80
2023-03-03T07:05:17.801Z,26.47
2023-03-03T07:07:46.039Z,23.47
2023-03-03T07:10:23.333Z,24.10
2023-03-03T07:12:51.628Z,23.60
2023-03-03T07:15:24.486Z,20.93
2023-03-03T07:17:58.364Z,26.27
2023-03-03T07:20:32.231Z,30.57
2023-03-03T07:23:00.541Z,22.53
2023-03-03T07:25:33.496Z,22.63
2023-03-03T07:28:13.218Z,26.00
2023-03-03T07:30:43.523Z,23.77
2023-03-03T07:33:25.053Z,22.33
2023-03-03T07:35:55.048Z,25.17
2023-03-03T07:38:30.886Z,24.53
2023-03-03T07:41:02.862Z,26.20
2023-03-03T07:43:44.857Z,25.40
2023-03-03T07:46:24.828Z,25.23
2023-03-03T07:48:54.446Z,28.77
2023-03-03T07:51:27.740Z,41.10
2023-03-03T07:54:02.005Z,28.83
2023-03-03T07:56:36.318Z,21.33
2023-03-03T07:59:17.425Z,21.93
2023-03-03T08:01:49.499Z,21.47
2023-03-03T08:04:21.094Z,22.93
2023-03-03T08:06:53.783Z,21.30
2023-03-03T08:09:31.660Z,21.47
2023-03-03T08:12:14.625Z,22.37
2023-03-03T08:14:42.838Z,18.93
2023-03-03T08:17:18.634Z,16.83
2023-03-03T08:19:46.900Z,22.47
2023-03-03T08:22:18.965Z,20.23
2023-03-03T08:24:47.163Z,19.17
2023-03-03T08:27:16.636Z,20.37
2023-03-03T08:29:45.344Z,18.20
2023-03-03T08:32:14.736Z,20.83
2023-03-03T08:34:42.919Z,21.03
2023-03-03T08:37:11.037Z,21.07
2023-03-03T08:39:40.175Z,19.97
2023-03-03T08:42:08.289Z,16.83
2023-03-03T08:44:37.817Z,20.73
2023-03-03T08:47:06.026Z,19.50
2023-03-03T08:49:34.150Z,16.97
2023-03-03T08:52:02.261Z,15.07
2023-03-03T08:54:30.634Z,17.07
2023-03-03T08:56:58.772Z,14.73
2023-03-03T08:59:26.949Z,18.83
2023-03-03T09:01:56.673Z,23.30
2023-03-03T09:04:24.846Z,19.43
2023-03-03T09:06:53.038Z,19.20
2023-03-03T09:09:21.164Z,18.90
2023-03-03T09:11:49.635Z,18.80
2023-03-03T09:14:21.025Z,15.47
2023-03-03T09:16:52.816Z,19.50
2023-03-03T09:19:29.625Z,14.93
2023-03-03T09:22:02.828Z,15.73
2023-03-03T09:24:32.625Z,14.07
2023-03-03T09:27:00.955Z,15.95
2023-03-03T09:29:30.596Z,16.70
2023-03-03T09:32:01.229Z,11.20
2023-03-03T09:34:41.104Z,15.27
2023-03-03T09:37:23.088Z,12.23
2023-03-03T09:39:53.003Z,12.63
2023-03-03T09:42:48.009Z,10.43
2023-03-03T09:45:50.498Z,14.98
2023-03-03T09:48:43.609Z,10.98
2023-03-03T09:51:31.842Z,10.73
2023-03-03T09:54:16.897Z,9.90
2023-03-03T09:56:50.492Z,13.85
2023-03-03T09:59:36.572Z,13.32
2023-03-03T10:02:32.888Z,9.48
2023-03-03T10:05:14.609Z,10.25
2023-03-03T10:07:56.506Z,9.27
2023-03-03T10:10:45.276Z,9.38
2023-03-03T10:13:30.765Z,8.70
2023-03-03T10:16:17.647Z,8.63
2023-03-03T10:18:53.031Z,9.85
2023-03-03T10:21:26.283Z,8.57
2023-03-03T10:23:59.340Z,9.38
2023-03-03T10:27:12.521Z,11.85
2023-03-03T10:29:51.983Z,7.57
2023-03-03T10:32:45.724Z,9.75
2023-03-03T10:35:26.296Z,7.65
2023-03-03T10:38:14.929Z,7.20
2023-03-03T10:40:52.224Z,7.10
2023-03-03T10:43:39.855Z,8.57
2023-03-03T10:46:32.458Z,7.45
2023-03-03T10:49:39.442Z,8.32
2023-03-03T10:52:20.811Z,5.90
2023-03-03T10:55:05.578Z,6.75
2023-03-03T10:57:42.717Z,6.97
2023-03-03T11:00:23.838Z,6.85
2023-03-03T11:03:20.547Z,10.05
2023-03-03T11:05:56.171Z,9.05
2023-03-03T11:08:31.245Z,8.15
2023-03-03T11:11:09.438Z,10.60
2023-03-03T11:13:48.347Z,8.57
2023-03-03T11:16:36.427Z,10.88
2023-03-03T11:19:14.176Z,7.30
2023-03-03T11:21:48.668Z,7.85
2023-03-03T11:24:39.040Z,7.57
2023-03-03T11:27:18.853Z,7.20
2023-03-03T11:29:59.756Z,8.68
2023-03-03T11:32:37.657Z,7.85
2023-03-03T11:35:23.374Z,7.88
2023-03-03T11:38:03.348Z,7.28
2023-03-03T11:40:37.231Z,7.68
2023-03-03T11:43:14.198Z,9.32
2023-03-03T11:45:52.082Z,10.43
2023-03-03T11:48:27.522Z,8.65
2023-03-03T11:51:02.084Z,7.97
2023-03-03T11:54:05.592Z,11.10
2023-03-03T11:56:39.815Z,11.25
2023-03-03T11:59:22.564Z,7.90
2023-03-03T12:01:55.954Z,6.40
2023-03-03T12:04:31.073Z,8.43
2023-03-03T12:07:19.841Z,10.30
2023-03-03T12:09:59.622Z,9.20
2023-03-03T12:12:34.435Z,7.70
2023-03-03T12:15:10.473Z,8.33
2023-03-03T12:17:58.189Z,10.60
2023-03-03T12:20:34.868Z,8.37
2023-03-03T12:23:14.348Z,12.07
2023-03-03T12:25:45.186Z,11.73
2023-03-03T12:28:19.117Z,6.22
2023-03-03T12:31:11.147Z,9.43
2023-03-03T12:33:54.091Z,11.20
2023-03-03T12:37:05.497Z,8.55
2023-03-03T12:39:53.688Z,6.28
2023-03-03T12:42:32.049Z,7.60
2023-03-03T12:45:15.764Z,8.55
2023-03-03T12:47:51.035Z,9.13
2023-03-03T12:50:36.161Z,9.63
2023-03-03T12:53:19.723Z,6.78
2023-03-03T12:55:53.913Z,9.20
2023-03-03T12:58:33.646Z,8.85
2023-03-03T13:01:17.106Z,8.43
2023-03-03T13:03:56.180Z,8.32
2023-03-03T13:06:31.142Z,8.65
2023-03-03T13:09:13.931Z,12.48
2023-03-03T13:11:56.684Z,7.93
2023-03-03T13:14:34.521Z,7.80
2023-03-03T13:17:11.748Z,6.97
2023-03-03T13:19:45.116Z,9.52
2023-03-03T13:22:19.325Z,8.80
2023-03-03T13:25:00.697Z,9.18
2023-03-03T13:27:35.472Z,8.50
2023-03-03T13:30:09.981Z,11.98
2023-03-03T13:32:45.276Z,8.30
2023-03-03T13:35:27.493Z,10.32
2023-03-03T13:37:59.075Z,8.32
2023-03-03T13:40:32.670Z,10.88
2023-03-03T13:43:06.082Z,14.35
2023-03-03T13:45:43.456Z,10.85
2023-03-03T13:48:31.483Z,14.15
2023-03-03T13:51:05.662Z,11.03
2023-03-03T13:53:44.392Z,11.80
2023-03-03T13:56:28.878Z,10.23
2023-03-03T13:59:05.114Z,10.60
2023-03-03T14:01:44.091Z,9.50
2023-03-03T14:04:19.594Z,9.73
2023-03-03T14:06:56.555Z,11.43
2023-03-03T14:09:44.146Z,9.43
2023-03-03T14:12:23.230Z,10.17
2023-03-03T14:15:00.714Z,8.87
2023-03-03T14:17:37.326Z,9.33
2023-03-03T14:20:17.687Z,11.20
2023-03-03T14:22:52.556Z,8.00
2023-03-03T14:25:22.273Z,10.70
2023-03-03T14:28:10.822Z,14.23
2023-03-03T14:30:40.084Z,12.50
2023-03-03T14:33:22.188Z,11.13
2023-03-03T14:36:01.196Z,9.90
2023-03-03T14:38:41.373Z,11.13
2023-03-03T14:41:18.206Z,9.00
2023-03-03T14:43:57.891Z,10.57
2023-03-03T14:46:36.725Z,10.00
2023-03-03T14:49:07.986Z,10.60
2023-03-03T14:51:43.191Z,9.73
2023-03-03T14:54:22.455Z,9.47
2023-03-03T14:57:02.359Z,10.63
2023-03-03T14:59:31.957Z,9.87
2023-03-03T15:02:25.456Z,9.87
2023-03-03T15:05:15.197Z,13.80
2023-03-03T15:07:44.174Z,8.10
2023-03-03T15:10:13.691Z,10.47
2023-03-03T15:12:43.726Z,11.87
2023-03-03T15:15:20.410Z,8.17
2023-03-03T15:18:02.695Z,10.47
2023-03-03T15:20:44.560Z,9.33
2023-03-03T15:23:40.374Z,13.97
2023-03-03T15:26:13.889Z,9.50
2023-03-03T15:28:55.622Z,8.77
2023-03-03T15:31:32.649Z,8.43
2023-03-03T15:34:07.831Z,8.13
2023-03-03T15:36:45.710Z,13.53
2023-03-03T15:39:21.728Z,11.83
2023-03-03T15:42:04.138Z,14.60
2023-03-03T15:44:47.716Z,11.40
2023-03-03T15:47:33.797Z,9.93
2023-03-03T15:50:22.251Z,11.50
2023-03-03T15:53:04.534Z,11.43
2023-03-03T15:55:43.148Z,11.43
2023-03-03T15:58:42.944Z,10.87
2023-03-03T16:01:24.479Z,12.97
2023-03-03T16:03:59.606Z,12.70
2023-03-03T16:06:41.220Z,9.97
2023-03-03T16:09:21.267Z,11.13
2023-03-03T16:11:56.220Z,11.37
2023-03-03T16:14:42.944Z,11.80
2023-03-03T16:17:23.804Z,9.97
2023-03-03T16:20:03.483Z,11.93
2023-03-03T16:22:55.966Z,10.33
2023-03-03T16:25:59.985Z,13.60
2023-03-03T16:28:42.013Z,11.37
2023-03-03T16:31:18.480Z,12.43
2023-03-03T16:33:56.958Z,17.30
2023-03-03T16:36:33.901Z,14.00
2023-03-03T16:39:07.780Z,12.53
2023-03-03T16:41:46.201Z,11.87
2023-03-03T16:44:32.496Z,12.53
2023-03-03T16:47:15.430Z,10.97
2023-03-03T16:49:53.959Z,13.83
2023-03-03T16:52:30.337Z,12.80
2023-03-03T16:55:05.844Z,14.23
2023-03-03T16:57:44.329Z,12.17
2023-03-03T17:00:19.871Z,13.03
2023-03-03T17:03:14.971Z,9.97
2023-03-03T17:05:51.557Z,10.63
2023-03-03T17:08:37.739Z,14.00
2023-03-03T17:11:14.155Z,11.77
2023-03-03T17:14:04.460Z,10.47
2023-03-03T17:16:51.423Z,14.30
2023-03-03T17:19:31.472Z,10.40
2023-03-03T17:22:13.961Z,10.73
2023-03-03T17:24:56.342Z,18.17
2023-03-03T17:27:36.190Z,15.63
2023-03-03T17:30:13.113Z,13.67
2023-03-03T17:33:02.172Z,12.07
2023-03-03T17:35:46.137Z,16.93
2023-03-03T17:38:28.117Z,13.20
2023-03-03T17:41:04.389Z,14.57
2023-03-03T17:43:41.849Z,12.57
2023-03-03T17:46:19.947Z,19.97
2023-03-03T17:49:30.214Z,14.83
2023-03-03T17:52:15.990Z,17.70
2023-03-03T17:55:12.894Z,15.47
2023-03-03T17:57:54.270Z,12.67
2023-03-03T18:00:36.966Z,15.80
2023-03-03T18:03:52.365Z,12.87
2023-03-03T18:06:57.114Z,14.50
2023-03-03T18:09:47.660Z,18.10
2023-03-03T18:12:30.880Z,17.33
2023-03-03T18:15:37.297Z,20.00
2023-03-03T18:18:27.047Z,15.10
2023-03-03T18:21:04.542Z,17.97
2023-03-03T18:23:43.390Z,17.93
2023-03-03T18:26:35.728Z,16.97
2023-03-03T18:29:15.212Z,20.53
2023-03-03T18:32:04.102Z,18.93
2023-03-03T18:34:39.099Z,19.47
2023-03-03T18:37:33.575Z,18.93
2023-03-03T18:40:33.221Z,21.87
2023-03-03T18:43:41.236Z,27.20
2023-03-03T18:46:34.177Z,21.23
2023-03-03T18:49:06.310Z,22.57
2023-03-03T18:52:16.080Z,26.80
2023-03-03T18:55:02.318Z,24.60
2023-03-03T18:57:33.778Z,25.33
2023-03-03T19:00:17.209Z,31.83
2023-03-03T19:02:57.262Z,27.50
2023-03-03T19:05:29.202Z,25.53
2023-03-03T19:08:07.357Z,23.17
2023-03-03T19:10:59.745Z,27.93
2023-03-03T19:13:48.509Z,25.53
2023-03-03T19:16:38.002Z,27.57
2023-03-03T19:19:15.809Z,26.43
2023-03-03T19:21:51.882Z,26.73
2023-03-03T19:24:35.317Z,23.50
2023-03-03T19:27:25.672Z,29.63
2023-03-03T19:30:24.820Z,26.93
2023-03-03T19:33:28.750Z,27.87
2023-03-03T19:36:22.578Z,24.03
2023-03-03T19:39:04.896Z,34.43
2023-03-03T19:41:51.222Z,23.77
2023-03-03T19:44:41.119Z,24.00
2023-03-03T19:47:23.410Z,20.67
2023-03-03T19:50:07.828Z,25.13
2023-03-03T19:52:43.632Z,20.47
2023-03-03T19:55:28.841Z,22.73
2023-03-03T19:58:10.632Z,23.80
2023-03-03T20:00:47.277Z,22.03
2023-03-03T20:03:43.391Z,26.17
2023-03-03T20:06:23.887Z,21.87
2023-03-03T20:09:05.835Z,24.97
2023-03-03T20:11:51.926Z,29.17
2023-03-03T20:14:44.788Z,21.17
2023-03-03T20:17:45.254Z,21.47
2023-03-03T20:20:35.525Z,20.33
2023-03-03T20:23:26.300Z,23.83
2023-03-03T20:26:04.822Z,24.97
2023-03-03T20:28:57.121Z,26.93
2023-03-03T20:31:36.518Z,27.47
2023-03-03T20:34:16.505Z,40.47
2023-03-03T20:36:58.050Z,30.70
2023-03-03T20:39:42.680Z,33.60
2023-03-03T20:42:31.222Z,32.30
2023-03-03T20:45:15.613Z,29.83
2023-03-03T20:47:57.329Z,29.10
2023-03-03T20:50:33.335Z,29.90
2023-03-03T20:53:14.278Z,27.57
2023-03-03T20:55:56.841Z,26.67
2023-03-03T20:58:38.767Z,30.10
2023-03-03T21:01:09.626Z,24.73
2023-03-03T21:03:42.698Z,21.53
2023-03-03T21:06:16.474Z,23.93
2023-03-03T21:08:50.312Z,22.13
2023-03-03T21:11:25.296Z,23.30
2023-03-03T21:13:57.029Z,19.83
2023-03-03T21:16:36.025Z,23.13
2023-03-03T21:19:07.683Z,21.97
2023-03-03T21:21:39.310Z,22.20
2023-03-03T21:24:10.322Z,21.37
2023-03-03T21:26:51.061Z,19.40
2023-03-03T21:29:26.598Z,25.47
2023-03-03T21:31:57.878Z,21.30
2023-03-03T21:34:29.768Z,20.00
2023-03-03T21:36:59.899Z,20.10
2023-03-03T21:39:34.135Z,22.10
2023-03-03T21:42:04.362Z,22.80
2023-03-03T21:44:40.389Z,20.53
2023-03-03T21:47:10.489Z,21.57
2023-03-03T21:49:43.611Z,20.40
2023-03-03T21:52:13.189Z,21.17
2023-03-03T21:54:42.306Z,17.13
2023-03-03T21:57:11.144Z,19.70
2023-03-03T21:59:40.777Z,25.30
2023-03-03T22:02:10.129Z,20.53
2023-03-03T22:04:39.272Z,20.80
2023-03-03T22:07:07.627Z,24.40
2023-03-03T22:09:36.140Z,24.73
2023-03-03T22:12:04.828Z,21.43
2023-03-03T22:14:34.305Z,21.00
2023-03-03T22:17:04.513Z,21.23
2023-03-03T22:19:34.322Z,19.83
2023-03-03T22:22:02.502Z,22.00
2023-03-03T22:24:30.726Z,22.13
2023-03-03T22:26:58.982Z,25.33
2023-03-03T22:29:27.453Z,20.10
2023-03-03T22:31:55.914Z,23.47
2023-03-03T22:34:25.974Z,23.27
2023-03-03T22:36:54.144Z,23.13
2023-03-03T22:39:22.307Z,18.73
2023-03-03T22:41:50.434Z,18.70
2023-03-03T22:44:18.610Z,23.40
2023-03-03T22:46:46.793Z,21.27
2023-03-03T22:49:14.941Z,22.47
2023-03-03T22:51:44.442Z,22.30
2023-03-03T22:54:12.622Z,21.20
2023-03-03T22:56:40.760Z,22.43
2023-03-03T22:59:08.884Z,28.97
2023-03-03T23:01:36.994Z,22.20
2023-03-03T23:04:05.417Z,20.67
2023-03-03T23:06:33.551Z,20.53
2023-03-03T23:09:03.045Z,21.63
2023-03-03T23:11:31.150Z,20.00
2023-03-03T23:13:59.282Z,22.10
2023-03-03T23:16:27.549Z,19.90
2023-03-03T23:18:55.739Z,19.97
2023-03-03T23:21:23.883Z,23.50
2023-03-03T23:23:51.942Z,23.97
2023-03-03T23:26:21.414Z,20.10
2023-03-03T23:28:49.524Z,22.00
2023-03-03T23:31:17.766Z,19.83
2023-03-03T23:33:45.955Z,20.00
2023-03-03T23:36:14.035Z,22.10
2023-03-03T23:38:43.256Z,18.53
2023-03-03T23:41:11.519Z,22.53
2023-03-03T23:43:40.993Z,23.63
2023-03-03T23:46:09.140Z,22.70
2023-03-03T23:48:37.317Z,21.77
2023-03-03T23:51:05.918Z,22.10
2023-03-03T23:53:34.084Z,19.20
2023-03-03T23:56:02.229Z,26.03
2023-03-03T23:58:30.380Z,22.73
